This is the latest recevied weather packets stored in our database for station/object N7BTW-13. If no packets are shown the sender has not sent any weather packets the latest 10 day(s).
| Time | Temp. | Humidity | Pressure | Rain* | Wind** | Luminosity | Snow |
|---|---|---|---|---|---|---|---|
| 1777758007 | 20.56° C | 68% | 1014 hPa | 0 mm | - | - | - |
| 1777757407 | 20.56° C | 70% | 1014.3 hPa | 0 mm | - | - | - |
| 1777756807 | 21.11° C | 68% | 1014.4 hPa | 0 mm | - | - | - |
| 1777756207 | 20.56° C | 69% | 1014.6 hPa | 0 mm | - | - | - |
| 1777755606 | 20° C | 69% | 1014.7 hPa | 0 mm | - | - | - |
| 1777755007 | 19.44° C | 70% | 1014.9 hPa | 0 mm | - | - | - |
| 1777754407 | 18.89° C | 71% | 1015 hPa | 0 mm | - | - | - |
| 1777753805 | 18.89° C | 71% | 1015.2 hPa | 0 mm | - | - | - |
| 1777753206 | 20° C | 71% | 1015.2 hPa | 0 mm | - | - | - |
| 1777752607 | 18.89° C | 72% | 1015.2 hPa | 0 mm | - | - | - |
| 1777752007 | 18.89° C | 75% | 1015.4 hPa | 0 mm | - | - | - |
| 1777751406 | 17.78° C | 76% | 1015.8 hPa | 0 mm | - | - | - |
| 1777750808 | 16.67° C | 79% | 1015.9 hPa | 0 mm | - | - | - |
| 1777750207 | 16.67° C | 80% | 1016 hPa | 0 mm | - | - | - |
| 1777749608 | 15.56° C | 84% | 1016 hPa | 0 mm | - | - | - |
| 1777749005 | 13.89° C | 86% | 1016.4 hPa | 0 mm | - | - | - |
| 1777748408 | 13.33° C | 87% | 1016.6 hPa | 0 mm | - | - | - |
| 1777747810 | 13.89° C | 88% | 1016.6 hPa | 0 mm | - | - | - |
| 1777747212 | 12.78° C | 91% | 1016.6 hPa | 0 mm | - | - | - |
| 1777746610 | 12.78° C | 93% | 1016.6 hPa | 0 mm | - | - | - |
| 1777746010 | 12.22° C | 93% | 1016.5 hPa | 0 mm | - | - | - |
| 1777745406 | 12.22° C | 93% | 1016.6 hPa | 0 mm | - | - | - |
| 1777744810 | 12.22° C | 94% | 1017 hPa | 0 mm | - | - | - |
| 1777744208 | 12.78° C | 91% | 1017.1 hPa | 0 mm | - | - | - |
| 1777743606 | 12.78° C | 90% | 1017.1 hPa | 0 mm | - | - | - |
* Rain latest hour (hover to see other rain measurements)
** Current wind speed in m/s (hover to see current wind gust speed)